Time;durP1;ratioP1;P1;durP2;ratioP2;P2;SDS_P1;SDS_P2;PMS_P1;PMS_P2;Temp;Humidity;BMP_temperature;BMP_pressure;BME280_temperature;BME280_humidity;BME280_pressure;Samples;Min_cycle;Max_cycle;Signal;HPM_P1;HPM_P2
2021/08/04 00:00:10;;;;;;;15.47;13.77;;;15.50;99.90;;;;;;5014468;28;20202;-84
2021/08/04 00:03:00;;;;;;;14.63;13.10;;;15.40;99.90;;;;;;5005688;28;20215;-81
2021/08/04 00:05:29;;;;;;;15.47;13.57;;;15.40;99.90;;;;;;5008702;28;20983;-81
2021/08/04 00:07:59;;;;;;;15.40;13.90;;;15.50;99.90;;;;;;5008796;28;20226;-85
2021/08/04 00:10:27;;;;;;;15.70;14.00;;;15.40;99.90;;;;;;5008408;28;20203;-83
2021/08/04 00:12:56;;;;;;;16.87;14.93;;;15.30;99.90;;;;;;5009345;28;20206;-85
2021/08/04 00:15:25;;;;;;;16.27;14.57;;;15.30;99.90;;;;;;5006516;28;21242;-82
2021/08/04 00:17:54;;;;;;;15.37;13.87;;;15.20;99.90;;;;;;5013434;28;20198;-82
2021/08/04 00:20:24;;;;;;;14.93;13.43;;;15.30;99.90;;;;;;5007017;28;20205;-83
2021/08/04 00:22:53;;;;;;;14.77;13.20;;;15.40;99.90;;;;;;5011743;28;20683;-82
2021/08/04 00:25:22;;;;;;;14.70;13.20;;;15.40;99.90;;;;;;5007610;28;20237;-83
2021/08/04 00:27:50;;;;;;;14.43;13.03;;;15.40;99.90;;;;;;5005669;28;20199;-83
2021/08/04 00:30:19;;;;;;;15.40;13.30;;;15.30;99.90;;;;;;5012628;28;20196;-83
2021/08/04 00:32:50;;;;;;;15.33;13.70;;;15.30;99.90;;;;;;5008219;28;20207;-81
2021/08/04 00:35:18;;;;;;;14.03;12.53;;;15.40;99.90;;;;;;5011874;28;21406;-82
2021/08/04 00:37:49;;;;;;;14.53;13.07;;;15.40;99.90;;;;;;5009842;28;20200;-82
2021/08/04 00:40:21;;;;;;;14.63;13.17;;;15.50;99.90;;;;;;5007454;28;20199;-83
2021/08/04 00:42:50;;;;;;;14.93;13.33;;;15.50;99.90;;;;;;5012408;28;20210;-84
2021/08/04 00:45:20;;;;;;;18.17;13.90;;;15.40;99.90;;;;;;5005830;28;20265;-81
2021/08/04 00:47:49;;;;;;;14.67;13.13;;;15.30;99.90;;;;;;5011532;28;20195;-82
2021/08/04 00:50:18;;;;;;;15.83;14.10;;;15.40;99.90;;;;;;5013365;28;20705;-84
2021/08/04 00:52:49;;;;;;;14.60;13.30;;;15.40;99.90;;;;;;5013661;28;20214;-79
2021/08/04 00:55:17;;;;;;;16.00;14.30;;;15.40;99.90;;;;;;5024993;28;20226;-84
2021/08/04 00:57:46;;;;;;;16.73;13.27;;;15.50;99.90;;;;;;5026894;28;20195;-84
2021/08/04 01:00:16;;;;;;;15.47;13.90;;;15.50;99.90;;;;;;5017108;28;20294;-84
2021/08/04 01:02:50;;;;;;;14.50;13.10;;;15.50;99.90;;;;;;5019124;28;20261;-84
2021/08/04 01:05:25;;;;;;;14.97;12.37;;;15.60;99.90;;;;;;5014095;28;20555;-82
2021/08/04 01:08:02;;;;;;;14.83;13.30;;;15.60;99.90;;;;;;5014196;28;20234;-82
2021/08/04 01:10:35;;;;;;;14.43;13.03;;;15.70;99.90;;;;;;5011122;28;20910;-84
2021/08/04 01:13:10;;;;;;;15.90;13.63;;;15.80;99.90;;;;;;4998010;28;20215;-85
2021/08/04 01:15:47;;;;;;;15.27;13.67;;;15.80;99.90;;;;;;5021514;28;20257;-85
2021/08/04 01:18:19;;;;;;;15.13;13.60;;;15.80;99.90;;;;;;5029396;28;20289;-83
2021/08/04 01:20:49;;;;;;;23.60;14.97;;;15.80;99.90;;;;;;5035627;28;20210;-80
2021/08/04 01:23:31;;;;;;;22.50;14.50;;;15.80;99.90;;;;;;5033008;28;20210;-81
2021/08/04 01:26:06;;;;;;;19.77;14.57;;;15.80;99.90;;;;;;5029998;28;20231;-80
2021/08/04 01:28:41;;;;;;;19.87;14.73;;;15.80;99.90;;;;;;5029557;28;20183;-82
2021/08/04 01:31:13;;;;;;;18.10;14.27;;;15.80;99.90;;;;;;5023825;28;20627;-81
2021/08/04 01:33:50;;;;;;;17.43;15.23;;;15.80;99.90;;;;;;5002691;28;20218;-81
2021/08/04 01:36:20;;;;;;;17.47;13.60;;;15.80;99.90;;;;;;5009712;28;20390;-83
2021/08/04 01:38:49;;;;;;;19.40;15.43;;;15.70;99.90;;;;;;5010825;28;20874;-82
2021/08/04 01:41:20;;;;;;;19.37;14.60;;;15.60;99.90;;;;;;4993501;28;20204;-84
2021/08/04 01:43:51;;;;;;;17.43;14.50;;;15.50;99.90;;;;;;5011545;28;20215;-82
2021/08/04 01:46:22;;;;;;;20.90;14.43;;;15.40;99.90;;;;;;5009826;28;20235;-84
2021/08/04 01:48:54;;;;;;;17.57;15.67;;;15.40;99.90;;;;;;5008440;28;20216;-83
2021/08/04 01:51:25;;;;;;;17.70;15.40;;;15.30;99.90;;;;;;5020386;28;20594;-80
2021/08/04 01:53:56;;;;;;;16.47;14.77;;;15.40;99.90;;;;;;5019472;28;20204;-82
2021/08/04 01:56:26;;;;;;;15.90;14.33;;;15.60;99.90;;;;;;5017238;28;20200;-82
2021/08/04 01:58:58;;;;;;;15.73;14.13;;;15.50;99.90;;;;;;5017714;28;20203;-85
2021/08/04 02:01:27;;;;;;;16.03;14.43;;;15.50;99.90;;;;;;5016625;28;20241;-82
2021/08/04 02:03:56;;;;;;;16.27;14.13;;;15.50;99.90;;;;;;5011190;28;20619;-81
2021/08/04 02:06:29;;;;;;;16.63;14.93;;;15.50;99.90;;;;;;5004774;28;20253;-84
2021/08/04 02:09:02;;;;;;;15.70;14.10;;;15.50;99.90;;;;;;5011057;28;20257;-84
2021/08/04 02:11:46;;;;;;;16.00;14.40;;;15.60;99.90;;;;;;5008396;28;20532;-85
2021/08/04 02:14:20;;;;;;;15.27;13.67;;;15.60;99.90;;;;;;5006254;28;20188;-84
2021/08/04 02:16:58;;;;;;;15.50;13.93;;;15.60;99.90;;;;;;5004925;28;20218;-85
2021/08/04 02:19:30;;;;;;;16.33;14.63;;;15.60;99.90;;;;;;5005451;28;20211;-83
2021/08/04 02:22:03;;;;;;;16.57;14.80;;;15.50;99.90;;;;;;5006770;28;20199;-81
2021/08/04 02:24:36;;;;;;;16.27;14.63;;;15.50;99.90;;;;;;5004367;28;20258;-81
2021/08/04 02:27:06;;;;;;;16.40;14.80;;;15.50;99.90;;;;;;5007926;28;20891;-83
2021/08/04 02:29:38;;;;;;;16.40;14.70;;;15.40;99.90;;;;;;5008029;28;20225;-85
2021/08/04 02:32:07;;;;;;;15.50;13.90;;;15.50;99.90;;;;;;5007108;28;20692;-85
2021/08/04 02:34:37;;;;;;;16.43;14.93;;;15.40;99.90;;;;;;5005677;28;20258;-83
2021/08/04 02:37:06;;;;;;;17.10;15.30;;;15.30;99.90;;;;;;5003391;28;20258;-84
2021/08/04 02:39:35;;;;;;;18.60;16.70;;;15.20;99.90;;;;;;5017495;28;20563;-82
2021/08/04 02:42:07;;;;;;;18.13;16.23;;;15.20;99.90;;;;;;5008541;28;20210;-84
2021/08/04 02:44:38;;;;;;;18.13;16.27;;;15.10;99.90;;;;;;5008006;28;20195;-82
2021/08/04 02:47:07;;;;;;;20.23;17.20;;;15.10;99.90;;;;;;5004065;28;20210;-86
2021/08/04 02:49:36;;;;;;;19.23;17.33;;;15.10;99.90;;;;;;5001709;28;20196;-80
2021/08/04 02:52:06;;;;;;;20.20;16.80;;;15.10;99.90;;;;;;5006724;28;20202;-83
2021/08/04 02:54:36;;;;;;;19.90;17.90;;;15.00;99.90;;;;;;5007459;28;20204;-83
2021/08/04 02:57:07;;;;;;;20.37;18.33;;;15.00;99.90;;;;;;5018185;28;20287;-82
2021/08/04 02:59:41;;;;;;;21.37;19.10;;;15.00;99.90;;;;;;5021434;28;20210;-82
2021/08/04 03:02:10;;;;;;;23.43;19.13;;;15.00;99.90;;;;;;5016216;28;20203;-85
2021/08/04 03:04:39;;;;;;;21.10;19.10;;;15.10;99.90;;;;;;5004069;28;20202;-84
2021/08/04 03:07:08;;;;;;;20.17;18.07;;;15.10;99.90;;;;;;5013456;28;20215;-84
2021/08/04 03:09:37;;;;;;;20.30;18.20;;;15.20;99.90;;;;;;5023619;28;20202;-80
2021/08/04 03:12:06;;;;;;;19.70;17.70;;;15.20;99.90;;;;;;5016422;28;20637;-85
2021/08/04 03:14:35;;;;;;;20.43;18.43;;;15.20;99.90;;;;;;5013006;28;20996;-82
2021/08/04 03:17:06;;;;;;;20.23;18.10;;;15.20;99.90;;;;;;5012809;28;20230;-82
2021/08/04 03:19:35;;;;;;;21.70;19.60;;;15.20;99.90;;;;;;5011764;28;20211;-84
2021/08/04 03:22:05;;;;;;;20.77;18.77;;;15.20;99.90;;;;;;5015768;28;20204;-81
2021/08/04 03:24:34;;;;;;;19.43;17.63;;;15.20;99.90;;;;;;5017573;28;20289;-83
2021/08/04 03:27:03;;;;;;;20.20;18.10;;;15.20;99.90;;;;;;5016684;28;20231;-84
2021/08/04 03:29:32;;;;;;;20.70;18.07;;;15.20;99.90;;;;;;5013660;28;20246;-83
2021/08/04 03:32:01;;;;;;;20.77;18.60;;;15.20;99.90;;;;;;5009071;28;20235;-84
2021/08/04 03:34:31;;;;;;;20.27;18.17;;;15.30;99.90;;;;;;5021807;28;20295;-83
2021/08/04 03:37:00;;;;;;;19.67;17.67;;;15.30;99.90;;;;;;5020023;28;20230;-85
2021/08/04 03:39:28;;;;;;;20.33;18.23;;;15.30;99.90;;;;;;5037690;28;20238;-81
2021/08/04 03:41:57;;;;;;;19.17;17.17;;;15.30;99.90;;;;;;5021847;28;20294;-81
2021/08/04 03:44:26;;;;;;;20.87;18.67;;;15.30;99.90;;;;;;5018701;28;20645;-81
2021/08/04 03:46:55;;;;;;;18.53;16.57;;;15.30;99.90;;;;;;5014140;28;20933;-80
2021/08/04 03:49:24;;;;;;;18.93;16.93;;;15.30;99.90;;;;;;5014783;28;20289;-83
2021/08/04 03:51:55;;;;;;;20.83;18.77;;;15.30;99.90;;;;;;5016489;28;20744;-82
2021/08/04 03:54:23;;;;;;;19.97;17.97;;;15.30;99.90;;;;;;5018862;28;20206;-82
2021/08/04 03:56:52;;;;;;;19.57;17.67;;;15.40;99.90;;;;;;5013231;28;20633;-83
2021/08/04 03:59:23;;;;;;;18.53;16.80;;;15.50;99.90;;;;;;5009852;28;20334;-85
2021/08/04 04:01:52;;;;;;;19.10;17.20;;;15.50;99.90;;;;;;5012364;28;20200;-84
2021/08/04 04:04:22;;;;;;;17.90;16.30;;;15.60;99.90;;;;;;5019748;28;20183;-83
2021/08/04 04:06:51;;;;;;;19.40;17.30;;;15.60;99.90;;;;;;5025846;28;20230;-85
2021/08/04 04:09:21;;;;;;;18.43;16.63;;;15.70;99.90;;;;;;5030328;28;20206;-85
2021/08/04 04:11:51;;;;;;;19.10;16.70;;;15.90;99.90;;;;;;5028906;28;20268;-83
2021/08/04 04:14:19;;;;;;;18.20;16.33;;;16.00;99.90;;;;;;5031001;28;20218;-81
2021/08/04 04:16:49;;;;;;;18.40;16.60;;;16.10;99.90;;;;;;5034339;28;20237;-83
2021/08/04 04:19:18;;;;;;;18.10;16.40;;;16.10;99.90;;;;;;5028967;28;20301;-84
2021/08/04 04:21:48;;;;;;;18.63;16.73;;;16.10;99.90;;;;;;5017196;28;20199;-81
2021/08/04 04:24:20;;;;;;;18.57;16.57;;;16.10;99.90;;;;;;5035651;28;20204;-79
2021/08/04 04:26:50;;;;;;;18.70;16.80;;;16.20;99.90;;;;;;5030781;28;20223;-82
2021/08/04 04:29:19;;;;;;;20.40;17.37;;;16.20;99.90;;;;;;5034202;28;20230;-84
2021/08/04 04:31:48;;;;;;;17.80;16.03;;;16.30;99.90;;;;;;5025863;28;20289;-83
2021/08/04 04:34:18;;;;;;;17.30;15.67;;;16.30;99.90;;;;;;5026000;28;20208;-82
2021/08/04 04:36:46;;;;;;;16.73;15.07;;;16.30;99.90;;;;;;5030474;28;20566;-85
2021/08/04 04:39:16;;;;;;;16.47;14.83;;;16.40;99.90;;;;;;5025762;28;20211;-84
2021/08/04 04:41:47;;;;;;;16.67;14.40;;;16.40;99.90;;;;;;5008456;28;20215;-86
2021/08/04 04:44:15;;;;;;;15.73;14.20;;;16.50;99.90;;;;;;5009791;28;20214;-83
2021/08/04 04:46:44;;;;;;;16.03;14.50;;;16.50;99.90;;;;;;5004218;28;20642;-83
2021/08/04 04:49:13;;;;;;;15.33;13.57;;;16.50;99.90;;;;;;5001270;28;20218;-84
2021/08/04 04:51:42;;;;;;;14.27;12.87;;;16.60;99.90;;;;;;5004994;28;20203;-81
2021/08/04 04:54:11;;;;;;;15.57;13.63;;;16.70;99.90;;;;;;5012024;28;20562;-85
2021/08/04 04:56:40;;;;;;;16.23;12.70;;;16.70;99.90;;;;;;5001332;28;20196;-84
2021/08/04 04:59:10;;;;;;;14.13;12.73;;;16.80;99.90;;;;;;5001760;28;20772;-83
2021/08/04 05:01:38;;;;;;;13.50;12.10;;;17.00;99.90;;;;;;5005524;28;20207;-86
2021/08/04 05:04:08;;;;;;;13.60;12.30;;;17.00;99.90;;;;;;5004601;28;20199;-82
2021/08/04 05:06:37;;;;;;;12.97;11.57;;;17.20;99.90;;;;;;5014721;28;20662;-87
2021/08/04 05:09:06;;;;;;;12.93;11.70;;;17.00;99.90;;;;;;5003744;28;20225;-85
2021/08/04 05:11:35;;;;;;;12.50;11.40;;;17.20;99.90;;;;;;5021274;28;20237;-83
2021/08/04 05:14:04;;;;;;;12.70;11.50;;;17.20;99.90;;;;;;5024501;28;20195;-84
2021/08/04 05:16:35;;;;;;;13.30;11.33;;;17.30;99.90;;;;;;5000740;28;20794;-85
2021/08/04 05:19:04;;;;;;;13.30;12.00;;;17.40;99.90;;;;;;5003727;28;20207;-87
2021/08/04 05:21:35;;;;;;;12.80;11.60;;;17.50;99.90;;;;;;5000727;28;21072;-84
2021/08/04 05:24:06;;;;;;;12.43;11.13;;;17.50;99.90;;;;;;5009066;28;20282;-86
2021/08/04 05:26:36;;;;;;;13.83;11.50;;;17.40;99.90;;;;;;5002669;28;20866;-85
2021/08/04 05:29:07;;;;;;;12.20;11.10;;;17.50;99.90;;;;;;5004977;28;20218;-85
2021/08/04 05:31:39;;;;;;;12.40;11.23;;;17.50;99.90;;;;;;4994127;28;20279;-83
2021/08/04 05:34:09;;;;;;;12.70;11.57;;;17.60;99.90;;;;;;5019942;28;20927;-84
2021/08/04 05:36:40;;;;;;;12.67;11.47;;;17.50;99.90;;;;;;5021707;28;20205;-85
2021/08/04 05:39:09;;;;;;;12.90;11.53;;;17.60;99.90;;;;;;5011378;28;20572;-85
2021/08/04 05:41:39;;;;;;;12.33;11.13;;;17.50;99.90;;;;;;5013509;28;20211;-84
2021/08/04 05:44:08;;;;;;;12.37;10.87;;;17.60;99.90;;;;;;5006691;28;20256;-84
2021/08/04 05:46:39;;;;;;;11.63;10.70;;;17.70;99.90;;;;;;5005421;28;20235;-82
2021/08/04 05:49:08;;;;;;;12.43;11.13;;;17.80;99.20;;;;;;5004056;28;20186;-84
2021/08/04 05:51:37;;;;;;;11.97;10.80;;;17.90;98.60;;;;;;5027423;28;20214;-82
2021/08/04 05:54:06;;;;;;;12.47;11.27;;;17.90;98.10;;;;;;5029037;28;20211;-82
2021/08/04 05:56:35;;;;;;;12.23;10.87;;;17.90;98.00;;;;;;5027803;28;20844;-86
2021/08/04 05:59:09;;;;;;;11.67;10.60;;;17.90;98.00;;;;;;4998996;28;21227;-84
2021/08/04 06:01:43;;;;;;;12.30;11.13;;;18.00;97.80;;;;;;5017565;28;20199;-83
2021/08/04 06:04:14;;;;;;;12.13;10.63;;;18.00;97.90;;;;;;5019051;28;20194;-81
2021/08/04 06:06:43;;;;;;;12.10;10.27;;;18.10;97.90;;;;;;5015202;28;20227;-85
2021/08/04 06:09:12;;;;;;;11.43;10.30;;;18.20;97.20;;;;;;5011318;28;20633;-83
2021/08/04 06:11:42;;;;;;;13.23;9.90;;;18.20;96.20;;;;;;4997661;28;20611;-82
2021/08/04 06:14:11;;;;;;;11.67;10.53;;;18.20;95.80;;;;;;5016013;28;20207;-82
2021/08/04 06:16:43;;;;;;;12.23;11.13;;;18.10;95.90;;;;;;5010146;28;20195;-83
2021/08/04 06:19:14;;;;;;;11.97;10.77;;;17.90;97.40;;;;;;5017795;28;20852;-84
2021/08/04 06:21:44;;;;;;;13.37;11.73;;;17.70;98.20;;;;;;5017174;28;20207;-82
2021/08/04 06:24:13;;;;;;;12.93;11.63;;;17.50;99.90;;;;;;5014114;28;20206;-82
2021/08/04 06:26:42;;;;;;;13.40;11.67;;;17.40;99.90;;;;;;5016233;28;20199;-82
2021/08/04 06:29:11;;;;;;;11.50;10.40;;;17.20;99.90;;;;;;5013377;28;20464;-78
2021/08/04 06:31:42;;;;;;;11.20;10.00;;;17.00;99.90;;;;;;5019706;28;20199;-80
2021/08/04 06:34:11;;;;;;;9.30;7.83;;;17.00;99.90;;;;;;5012700;28;20235;-80
2021/08/04 06:36:40;;;;;;;10.60;8.50;;;16.80;99.90;;;;;;5011551;28;20209;-78
2021/08/04 06:39:08;;;;;;;9.23;8.17;;;16.70;99.90;;;;;;5011598;28;20290;-79
2021/08/04 06:41:37;;;;;;;9.57;8.67;;;16.60;99.90;;;;;;5001966;28;20551;-80
2021/08/04 06:44:06;;;;;;;12.27;10.60;;;16.60;99.90;;;;;;5006283;28;20301;-83
2021/08/04 06:46:36;;;;;;;11.33;10.23;;;16.60;99.90;;;;;;5010222;28;20222;-81
2021/08/04 06:49:08;;;;;;;12.50;10.30;;;16.60;99.90;;;;;;5011521;28;20199;-78
2021/08/04 06:51:37;;;;;;;12.00;9.83;;;16.60;99.90;;;;;;5015282;28;20294;-80
2021/08/04 06:54:05;;;;;;;11.60;10.40;;;16.60;99.90;;;;;;5024052;28;20212;-80
2021/08/04 06:56:34;;;;;;;11.63;10.50;;;16.60;99.90;;;;;;5030618;28;20229;-79
2021/08/04 06:59:03;;;;;;;11.63;10.50;;;16.70;99.90;;;;;;5029901;28;20175;-81
2021/08/04 07:01:32;;;;;;;13.27;10.97;;;16.80;99.90;;;;;;5025695;28;20214;-77
2021/08/04 07:36:01;;;;;;;7.07;6.37;;;18.20;99.90;;;;;;4750081;29;20325;-82
2021/08/04 07:38:29;;;;;;;7.93;6.23;;;18.30;99.90;;;;;;4790133;29;21284;-80
2021/08/04 07:41:01;;;;;;;7.00;6.10;;;18.30;99.90;;;;;;4785998;29;20242;-79
2021/08/04 07:43:30;;;;;;;7.93;6.83;;;18.20;99.90;;;;;;4787264;29;20233;-80
2021/08/04 07:46:00;;;;;;;7.53;6.60;;;18.10;99.90;;;;;;4781955;29;20620;-86
2021/08/04 07:48:33;;;;;;;8.60;7.67;;;17.90;99.90;;;;;;4768021;29;20253;-81
2021/08/04 07:51:07;;;;;;;8.60;7.80;;;17.80;99.90;;;;;;4782595;29;20223;-84
2021/08/04 07:53:36;;;;;;;13.40;8.17;;;17.70;99.90;;;;;;4790824;29;20214;-82
2021/08/04 07:56:05;;;;;;;9.57;8.67;;;17.70;99.90;;;;;;4790286;29;20225;-81
2021/08/04 07:58:35;;;;;;;10.87;9.47;;;17.70;99.90;;;;;;4843771;29;20215;-81
2021/08/04 08:01:04;;;;;;;14.30;10.10;;;17.70;99.90;;;;;;4845957;29;20236;-83
2021/08/04 08:03:33;;;;;;;11.93;9.27;;;17.70;99.90;;;;;;4844531;29;20216;-85
2021/08/04 08:06:03;;;;;;;10.70;9.13;;;17.70;99.90;;;;;;4852706;29;20327;-81
2021/08/04 08:11:37;;;;;;;8.67;7.83;;;17.80;99.90;;;;;;4848819;29;20227;-81
2021/08/04 08:14:14;;;;;;;7.13;6.53;;;17.80;99.90;;;;;;4861907;29;20212;-79
2021/08/04 08:16:43;;;;;;;6.53;5.93;;;17.80;99.90;;;;;;4855219;29;20225;-77
2021/08/04 08:19:12;;;;;;;7.20;6.50;;;17.90;99.90;;;;;;4850067;29;20606;-78
2021/08/04 08:21:50;;;;;;;6.43;5.83;;;18.00;99.90;;;;;;4853491;29;20409;-84
2021/08/04 08:24:24;;;;;;;6.80;5.77;;;18.00;99.90;;;;;;4874616;29;20222;-84
2021/08/04 08:26:55;;;;;;;5.80;5.30;;;18.00;99.90;;;;;;4898219;29;20943;-81
2021/08/04 08:29:26;;;;;;;6.97;5.90;;;18.00;99.90;;;;;;4907059;29;20619;-81
2021/08/04 08:31:56;;;;;;;6.27;5.77;;;17.90;99.90;;;;;;4911640;29;20308;-82
2021/08/04 08:34:26;;;;;;;6.47;5.87;;;18.00;99.90;;;;;;4902700;29;20325;-86
2021/08/04 08:36:59;;;;;;;6.47;5.97;;;18.00;99.90;;;;;;4877002;29;20210;-79
2021/08/04 08:39:30;;;;;;;6.80;6.10;;;18.10;99.90;;;;;;4908766;29;20530;-81
2021/08/04 08:45:06;;;;;;;5.90;5.40;;;18.20;99.90;;;;;;4931543;28;20212;-79
2021/08/04 08:47:44;;;;;;;5.40;4.97;;;17.90;99.90;;;;;;4925508;28;20209;-85
2021/08/04 08:50:25;;;;;;;6.07;5.57;;;18.00;99.90;;;;;;4927661;28;20210;-83
2021/08/04 08:52:57;;;;;;;7.70;6.20;;;18.00;99.90;;;;;;4976089;28;20206;-82
2021/08/04 08:55:26;;;;;;;6.30;5.67;;;18.00;99.90;;;;;;4978971;28;20192;-81
2021/08/04 08:57:55;;;;;;;7.07;6.47;;;18.10;99.90;;;;;;4977955;28;20207;-82
2021/08/04 09:00:24;;;;;;;7.17;6.47;;;18.10;99.90;;;;;;4978088;28;20226;-83
2021/08/04 09:02:53;;;;;;;8.00;6.83;;;18.20;99.90;;;;;;4987753;28;20206;-81
2021/08/04 09:05:22;;;;;;;7.57;6.87;;;18.30;99.90;;;;;;4991141;28;20216;-80
2021/08/04 09:07:55;;;;;;;7.23;6.60;;;18.30;99.90;;;;;;4989925;28;20206;-80
2021/08/04 09:10:27;;;;;;;8.17;7.20;;;18.50;99.90;;;;;;4987677;28;20203;-83
2021/08/04 09:12:58;;;;;;;8.17;6.97;;;18.60;99.90;;;;;;4986720;28;20717;-81
2021/08/04 09:15:30;;;;;;;7.93;7.13;;;18.70;99.90;;;;;;4991452;28;20239;-81
2021/08/04 09:18:01;;;;;;;7.20;6.60;;;18.90;99.90;;;;;;4958150;28;20216;-81
2021/08/04 09:20:31;;;;;;;8.03;7.07;;;18.90;99.90;;;;;;4993013;28;20382;-83
2021/08/04 09:23:02;;;;;;;6.77;6.10;;;19.00;99.90;;;;;;4996265;28;20207;-82
2021/08/04 09:25:31;;;;;;;7.73;6.33;;;19.00;99.90;;;;;;5000197;28;20637;-79
2021/08/04 09:28:00;;;;;;;7.10;6.40;;;19.10;99.00;;;;;;4966533;28;20690;-79
2021/08/04 09:30:32;;;;;;;7.00;6.30;;;19.00;99.90;;;;;;4988187;28;20217;-83
2021/08/04 09:33:14;;;;;;;7.50;6.80;;;19.00;99.90;;;;;;4994206;28;20280;-82
2021/08/04 09:35:46;;;;;;;7.53;6.80;;;19.00;99.90;;;;;;4991553;28;20203;-82
2021/08/04 09:38:18;;;;;;;9.50;8.20;;;19.00;99.90;;;;;;4997565;28;20232;-82
2021/08/04 09:40:49;;;;;;;8.27;7.43;;;19.10;99.90;;;;;;5001470;28;20203;-80
2021/08/04 09:43:25;;;;;;;8.63;7.73;;;19.20;99.90;;;;;;5004086;28;20287;-80
2021/08/04 09:45:56;;;;;;;8.37;7.23;;;19.20;99.90;;;;;;4995862;28;20608;-80
2021/08/04 09:48:30;;;;;;;9.37;8.37;;;19.30;99.90;;;;;;4984848;28;20593;-82
2021/08/04 09:51:00;;;;;;;9.03;8.13;;;19.40;99.90;;;;;;4991764;28;20266;-82
2021/08/04 09:53:33;;;;;;;9.80;7.90;;;19.50;99.90;;;;;;4986891;28;20234;-79
2021/08/04 09:56:07;;;;;;;11.47;7.97;;;19.40;99.30;;;;;;4997004;28;20207;-81
2021/08/04 09:58:41;;;;;;;9.07;7.50;;;19.20;99.90;;;;;;4986650;28;21223;-81
2021/08/04 10:01:14;;;;;;;7.97;7.23;;;19.20;99.90;;;;;;4994992;28;20216;-80
2021/08/04 10:04:01;;;;;;;8.57;7.67;;;19.30;99.90;;;;;;5003410;28;20206;-81
2021/08/04 10:06:38;;;;;;;9.10;8.20;;;19.30;99.90;;;;;;5005490;28;20461;-79
2021/08/04 10:09:10;;;;;;;10.60;9.60;;;19.30;99.90;;;;;;5000233;28;20323;-81
2021/08/04 10:11:43;;;;;;;11.20;9.03;;;19.30;99.90;;;;;;5012798;28;20206;-81
2021/08/04 10:14:16;;;;;;;8.53;7.73;;;19.30;99.90;;;;;;5016914;28;20392;-83
2021/08/04 10:16:46;;;;;;;6.00;5.47;;;19.20;99.90;;;;;;5003178;28;20937;-82
2021/08/04 10:19:17;;;;;;;6.23;5.40;;;19.10;97.10;;;;;;4998969;28;20210;-80
2021/08/04 10:21:49;;;;;;;6.03;5.40;;;18.90;97.10;;;;;;4995410;28;20292;-81
2021/08/04 10:24:21;;;;;;;6.57;5.43;;;18.70;97.70;;;;;;4997248;28;20204;-82
2021/08/04 10:26:51;;;;;;;7.10;6.40;;;18.60;98.90;;;;;;4995641;28;20212;-81
2021/08/04 10:29:22;;;;;;;7.50;6.20;;;18.40;99.80;;;;;;5000845;28;20229;-81
2021/08/04 10:31:51;;;;;;;7.03;5.87;;;18.30;99.90;;;;;;4993492;28;20207;-81
2021/08/04 10:34:25;;;;;;;6.23;5.60;;;18.00;99.90;;;;;;4999511;28;20203;-79
2021/08/04 10:36:58;;;;;;;6.10;5.50;;;17.70;99.90;;;;;;4986134;28;20310;-81
2021/08/04 10:39:30;;;;;;;6.40;5.17;;;17.50;99.90;;;;;;4983742;28;20216;-82
2021/08/04 10:42:05;;;;;;;8.30;5.10;;;17.30;99.90;;;;;;4990522;28;20238;-81
2021/08/04 10:44:39;;;;;;;4.43;4.03;;;17.10;99.90;;;;;;4976221;28;20223;-82
2021/08/04 10:47:26;;;;;;;3.93;3.53;;;16.80;99.90;;;;;;4995846;28;20210;-81
2021/08/04 10:50:10;;;;;;;6.40;4.07;;;16.60;99.90;;;;;;4993626;28;21010;-81
2021/08/04 10:53:07;;;;;;;6.70;5.13;;;16.50;99.90;;;;;;4998220;28;20267;-82
2021/08/04 10:55:56;;;;;;;5.00;3.60;;;16.40;99.90;;;;;;4972928;28;20216;-82
2021/08/04 10:58:28;;;;;;;3.77;3.33;;;16.30;99.90;;;;;;4992158;28;20285;-83
2021/08/04 11:01:30;;;;;;;3.53;3.00;;;16.30;99.90;;;;;;4992942;28;20196;-83
2021/08/04 11:04:06;;;;;;;4.80;3.20;;;16.30;99.90;;;;;;4980674;28;21323;-81
2021/08/04 11:07:12;;;;;;;3.37;3.07;;;16.10;99.90;;;;;;4994867;28;20231;-82
2021/08/04 11:09:43;;;;;;;5.53;3.67;;;16.00;99.90;;;;;;4981488;28;20215;-82
2021/08/04 11:12:16;;;;;;;5.70;3.97;;;15.90;99.90;;;;;;4992527;28;20987;-82
2021/08/04 11:14:49;;;;;;;4.30;3.90;;;15.90;99.90;;;;;;4994462;28;20199;-83
2021/08/04 11:17:25;;;;;;;4.20;3.80;;;15.90;99.90;;;;;;5010710;28;20690;-84
2021/08/04 11:20:13;;;;;;;5.20;4.03;;;15.90;99.90;;;;;;4988381;28;20314;-82
2021/08/04 11:22:50;;;;;;;4.30;3.90;;;15.80;99.90;;;;;;4993755;28;20212;-82
2021/08/04 11:25:38;;;;;;;5.40;3.70;;;15.90;99.90;;;;;;5002637;28;20263;-82
2021/08/04 11:28:14;;;;;;;4.73;3.63;;;15.90;99.90;;;;;;4983580;28;20215;-83
2021/08/04 11:30:50;;;;;;;4.50;3.90;;;15.80;99.90;;;;;;4990822;28;20361;-82
2021/08/04 11:33:32;;;;;;;5.43;4.33;;;16.00;99.90;;;;;;4983516;28;20217;-81
2021/08/04 11:36:24;;;;;;;5.50;4.00;;;16.00;99.90;;;;;;4986455;28;20219;-81
2021/08/04 11:38:57;;;;;;;5.93;4.40;;;16.10;99.90;;;;;;4976786;28;20249;-82
2021/08/04 11:41:36;;;;;;;6.27;4.27;;;16.20;99.90;;;;;;4983588;28;20192;-81
2021/08/04 11:44:28;;;;;;;5.53;4.63;;;16.20;99.90;;;;;;4986424;28;20243;-85
2021/08/04 11:47:05;;;;;;;4.23;3.80;;;16.20;99.90;;;;;;4984518;28;20208;-82
2021/08/04 11:49:41;;;;;;;4.23;3.63;;;16.30;99.90;;;;;;4990845;28;20347;-81
2021/08/04 11:52:14;;;;;;;5.90;4.10;;;16.30;99.90;;;;;;4997596;28;20218;-84
2021/08/04 11:55:00;;;;;;;4.53;4.13;;;16.30;99.90;;;;;;4995846;28;20228;-84
2021/08/04 11:57:32;;;;;;;5.00;4.40;;;16.30;99.90;;;;;;4994914;28;20207;-81
2021/08/04 12:00:06;;;;;;;4.83;4.40;;;16.40;99.90;;;;;;4972566;28;20204;-84
2021/08/04 12:02:38;;;;;;;5.23;4.73;;;16.50;99.90;;;;;;4974145;28;20218;-83
2021/08/04 12:05:13;;;;;;;5.03;4.53;;;16.60;99.90;;;;;;4960978;28;20254;-81
2021/08/04 12:07:43;;;;;;;6.73;4.40;;;16.60;99.90;;;;;;4969384;28;20216;-82
2021/08/04 12:10:13;;;;;;;5.27;4.50;;;16.50;99.90;;;;;;4967959;28;20318;-80
2021/08/04 12:12:44;;;;;;;6.17;5.57;;;16.50;99.90;;;;;;4975587;28;20224;-82
2021/08/04 12:15:20;;;;;;;5.23;4.50;;;16.60;99.90;;;;;;4972457;28;20211;-82
2021/08/04 12:17:51;;;;;;;4.60;4.07;;;16.60;99.90;;;;;;4975319;28;20725;-81
2021/08/04 12:20:27;;;;;;;4.67;4.17;;;16.70;99.90;;;;;;4964767;28;20200;-81
2021/08/04 12:22:59;;;;;;;4.57;4.17;;;16.70;99.90;;;;;;4952248;28;20231;-83
2021/08/04 12:25:31;;;;;;;4.93;4.30;;;16.80;99.90;;;;;;4968229;28;20314;-82
2021/08/04 12:28:02;;;;;;;5.03;4.30;;;16.80;99.90;;;;;;4956894;28;20279;-81
2021/08/04 12:30:35;;;;;;;3.93;3.63;;;17.00;99.90;;;;;;4953988;28;20243;-81
2021/08/04 12:33:06;;;;;;;4.77;4.07;;;17.30;99.90;;;;;;4957602;28;20298;-81
2021/08/04 12:35:42;;;;;;;3.20;2.83;;;17.40;99.90;;;;;;4944050;28;20267;-83
2021/08/04 12:38:22;;;;;;;3.13;2.80;;;17.70;99.90;;;;;;4959560;28;20204;-83
2021/08/04 12:40:54;;;;;;;2.93;2.50;;;17.70;99.90;;;;;;4957509;28;20221;-82
2021/08/04 12:43:29;;;;;;;3.83;2.90;;;17.70;99.90;;;;;;4963696;28;20208;-82
2021/08/04 12:46:00;;;;;;;3.63;3.00;;;17.70;99.90;;;;;;4967559;28;20207;-80
2021/08/04 12:48:36;;;;;;;2.57;2.37;;;18.00;99.90;;;;;;4967163;28;20804;-82
2021/08/04 12:51:13;;;;;;;2.53;2.33;;;18.20;99.90;;;;;;4975639;28;20234;-83
2021/08/04 12:53:45;;;;;;;3.20;2.87;;;18.20;99.90;;;;;;4982688;28;20775;-85
2021/08/04 12:56:17;;;;;;;3.70;2.67;;;18.20;99.90;;;;;;4983113;28;21014;-81
2021/08/04 12:58:56;;;;;;;3.53;2.40;;;18.40;99.90;;;;;;4987897;28;20192;-82
2021/08/04 13:01:28;;;;;;;2.93;2.30;;;18.80;99.90;;;;;;4985873;28;20236;-83
2021/08/04 13:03:57;;;;;;;2.90;2.63;;;19.10;99.00;;;;;;4992348;28;20204;-83
2021/08/04 13:06:49;;;;;;;2.50;2.30;;;19.40;98.20;;;;;;4987253;28;20239;-82
2021/08/04 13:09:19;;;;;;;2.47;2.27;;;19.60;96.70;;;;;;4973668;28;20212;-82
2021/08/04 13:11:48;;;;;;;2.45;2.25;;;19.90;96.00;;;;;;4983141;28;20234;-84
2021/08/04 13:14:17;;;;;;;2.72;2.53;;;20.10;96.60;;;;;;4975198;28;20659;-83
2021/08/04 13:16:46;;;;;;;2.47;2.08;;;20.20;94.80;;;;;;4975976;28;20211;-85
2021/08/04 13:19:22;;;;;;;2.40;2.20;;;20.10;94.80;;;;;;4975188;28;20212;-80
2021/08/04 13:22:06;;;;;;;3.08;2.85;;;20.30;94.10;;;;;;4970326;28;20235;-84
2021/08/04 13:24:38;;;;;;;2.63;2.42;;;20.10;92.80;;;;;;4976652;28;20777;-81
2021/08/04 13:27:28;;;;;;;3.25;2.78;;;19.90;94.00;;;;;;4973993;28;21287;-80
2021/08/04 13:30:15;;;;;;;2.70;2.50;;;20.10;95.10;;;;;;4968473;28;20208;-83
2021/08/04 13:32:44;;;;;;;3.72;3.00;;;20.10;93.10;;;;;;4966721;28;20298;-82
2021/08/04 13:35:14;;;;;;;2.75;2.55;;;20.10;93.10;;;;;;4966348;28;20216;-82
2021/08/04 13:37:45;;;;;;;3.22;3.00;;;20.00;96.50;;;;;;4962218;28;20881;-84